Flight Track Log - Related Links

Times and Time Zones

All times are in EDT time to prevent confusion due to time zone crossing. See the DAL1069 flight status page for this flight to view local times or setup timezone preferences in your user account.

Time Position Orientation Groundspeed Altitude Reporting Facility
EDT Latitude Longitude Course Direction KTS MPH feet Rate Location/Type
Sun 06:55:41 AM 41.3153 -95.9144 116° Southeast 148 170 1,500  Level Minneapolis Center
Sun 06:56:36 AM 41.3617 -95.9175 357° North 221 254 2,900 1,897 Climbing Minneapolis Center
Sun 06:57:38 AM 41.3844 -95.8383 69° East 236 272 5,200 2,390 Climbing Minneapolis Center
Sun 06:58:00 AM 41.0924 -95.5027 108° East  Level FlightAware Approximate
Sun 06:58:39 AM 41.3408 -95.7517 124° Southeast 266 306 7,800  Level Minneapolis Center
Sun 06:59:00 AM 41.0456 -95.3534 114° Southeast  Level FlightAware Approximate
Sun 06:59:39 AM 41.3008 -95.6519 118° Southeast 290 334 10,200  Level Minneapolis Center
Sun 07:00:00 AM 40.9943 -95.2069 116° Southeast  Level FlightAware Approximate
Sun 07:00:39 AM 41.2561 -95.5339 117° Southeast 350 403 11,900  Level Minneapolis Center
Sun 07:01:39 AM 41.2028 -95.4022 118° Southeast 398 458 13,300 1,950 Climbing Minneapolis Center
Sun 07:02:39 AM 41.1447 -95.2606 119° Southeast 431 496 15,800 2,331 Climbing Minneapolis Center
Sun 07:03:40 AM 41.0850 -95.1164 119° Southeast 442 509 18,000 2,083 Climbing Minneapolis Center
Sun 07:04:40 AM 41.0228 -94.9686 119° Southeast 450 518 20,000 1,900 Climbing Minneapolis Center
Sun 07:05:40 AM 40.9592 -94.8147 119° Southeast 462 532 21,800 1,750 Climbing Minneapolis Center
Sun 07:06:40 AM 40.8914 -94.6578 120° Southeast 482 555 23,500 1,636 Climbing Minneapolis Center
Sun 07:07:41 AM 40.8239 -94.5014 120° Southeast 496 571 25,100 1,835 Climbing Minneapolis Center
Sun 07:08:41 AM 40.7556 -94.3428 120° Southeast 498 573 27,200 1,750 Climbing Minneapolis Center
Sun 07:09:41 AM 40.6886 -94.1839 119° Southeast 498 573 28,600 1,250 Climbing Minneapolis Center
Sun 07:10:41 AM 40.6206 -94.0244 119° Southeast 499 574 29,700 992 Climbing Minneapolis Center
Sun 07:11:42 AM 40.5486 -93.8647 121° Southeast 507 583 30,600 793 Climbing Minneapolis Center
Sun 07:12:42 AM 40.4706 -93.7047 123° Southeast 517 595 31,300 700 Climbing Minneapolis Center
Sun 07:13:42 AM 40.3886 -93.5447 124° Southeast 528 608 32,000 350 Climbing Minneapolis Center
Sun 07:14:42 AM 40.3044 -93.3922 126° Southeast 527 606 32,000  Level Minneapolis Center
Sun 07:15:51 AM 40.2047 -93.2069 125° Southeast 526 605 32,000 232 Level Kansas City Center
Sun 07:17:43 AM 40.0389 -92.9017 125° Southeast 524 603 32,700 347 Climbing Minneapolis Center
Sun 07:18:44 AM 39.9547 -92.7481 126° Southeast 528 608 33,000 149 Climbing Minneapolis Center
Sun 07:19:44 AM 39.8708 -92.5939 125° Southeast 528 608 33,000  Level Minneapolis Center
Sun 07:20:50 AM 39.7842 -92.4361 126° Southeast 527 606 33,000  Level Kansas City Center
Sun 07:21:53 AM 39.6839 -92.2564 126° Southeast 528 608 33,000  Level Kansas City Center
Sun 07:22:51 AM 39.5989 -92.1025 126° Southeast 528 608 33,000  Level Kansas City Center
Sun 07:23:54 AM 39.5131 -91.9494 126° Southeast 528 608 33,000  Level Kansas City Center
Sun 07:24:52 AM 39.4264 -91.7978 126° Southeast 528 608 33,000  Level Kansas City Center
Sun 07:25:53 AM 39.3494 -91.6611 126° Southeast 529 609 33,000  Level Kansas City Center
Sun 07:26:55 AM 39.2625 -91.5089 126° Southeast 529 609 33,000  Level Kansas City Center
Sun 07:27:55 AM 39.1769 -91.3578 126° Southeast 529 609 33,000  Level Kansas City Center
Sun 07:28:56 AM 39.0733 -91.1764 126° Southeast 525 604 33,000 -550 Level Kansas City Center
Sun 07:29:55 AM 38.9867 -91.0264 127° Southeast 525 604 31,900 -992 Descending Kansas City Center
Sun 07:30:57 AM 38.8994 -90.8783 127° Southeast 525 604 31,000 -439 Descending Kansas City Center
Sun 07:31:58 AM 38.8147 -90.7325 127° Southeast 518 596 31,000  Level Kansas City Center
Sun 07:32:58 AM 38.7300 -90.5922 128° Southeast 519 597 31,000  Level Kansas City Center
Sun 07:33:58 AM 38.6117 -90.4908 146° Southeast 518 596 31,000  Level Kansas City Center
Sun 07:34:57 AM 38.4931 -90.3958 148° Southeast 509 586 31,000  Level Kansas City Center
Sun 07:36:01 AM 38.3747 -90.3006 148° Southeast 512 589 31,000  Level Kansas City Center
Sun 07:37:01 AM 38.2556 -90.2061 148° Southeast 511 588 31,000  Level Kansas City Center
Sun 07:38:02 AM 38.1356 -90.1108 148° Southeast 508 585 31,000  Level Kansas City Center
Sun 07:39:00 AM 37.9928 -89.9931 147° Southeast 509 586 31,000  Level Kansas City Center
Sun 07:40:00 AM 37.8744 -89.8972 147° Southeast 508 585 31,000  Level Kansas City Center
Sun 07:41:01 AM 37.7800 -89.8228 148° Southeast 507 583 31,000  Level Kansas City Center
Sun 07:42:01 AM 37.6386 -89.7092 148° Southeast 504 580 31,000  Level Kansas City Center
Sun 07:43:05 AM 37.5383 -89.6289 148° Southeast 503 579 31,000  Level Kansas City Center
Sun 07:44:05 AM 37.4194 -89.5356 148° Southeast 504 580 31,000  Level Kansas City Center
Sun 07:45:03 AM 37.3003 -89.4417 148° Southeast 505 581 31,000  Level Kansas City Center
Sun 07:46:04 AM 37.1586 -89.3325 148° Southeast 499 574 31,000  Level Kansas City Center
Sun 07:47:06 AM 37.0422 -89.2447 149° Southeast 496 571 31,000  Level Memphis Center
Sun 07:48:07 AM 36.9247 -89.1528 148° Southeast 496 571 31,000  Level Memphis Center
Sun 07:49:08 AM 36.8075 -89.0622 148° Southeast 496 571 31,000  Level Memphis Center
Sun 07:50:09 AM 36.6889 -88.9717 149° Southeast 496 571 31,000  Level Memphis Center
Sun 07:51:10 AM 36.5714 -88.8817 148° Southeast 495 570 31,000  Level Memphis Center
Sun 07:52:11 AM 36.4531 -88.7925 149° Southeast 495 570 31,000 -595 Level Memphis Center
Sun 07:53:11 AM 36.3369 -88.7039 148° Southeast 490 564 29,800 -992 Descending Memphis Center
Sun 07:54:12 AM 36.2214 -88.6167 149° Southeast 486 559 29,000 -393 Descending Memphis Center
Sun 07:55:13 AM 36.1042 -88.5294 149° Southeast 486 559 29,000  Level Memphis Center
Sun 07:56:14 AM 35.9872 -88.4408 148° Southeast 488 562 29,000  Level Memphis Center
Sun 07:57:15 AM 35.8694 -88.3522 149° Southeast 489 563 29,000  Level Memphis Center
Sun 07:58:16 AM 35.7514 -88.2631 148° Southeast 492 566 29,000  Level Memphis Center
Sun 07:59:17 AM 35.6336 -88.1750 149° Southeast 493 567 29,000  Level Memphis Center
Sun 08:00:18 AM 35.5083 -88.0839 149° Southeast 495 570 29,000  Level Memphis Center
Sun 08:01:19 AM 35.3892 -87.9964 149° Southeast 495 570 29,000  Level Memphis Center
Sun 08:02:20 AM 35.2611 -87.9003 148° Southeast 495 570 29,000  Level Memphis Center
Sun 08:03:21 AM 35.1456 -87.8142 149° Southeast 493 567 29,000  Level Memphis Center
Sun 08:04:22 AM 35.0731 -87.6769 123° Southeast 484 557 29,000  Level Memphis Center
Sun 08:05:23 AM 35.0206 -87.5256 113° Southeast 484 557 29,000  Level Memphis Center
Sun 08:06:24 AM 34.9664 -87.3733 113° Southeast 484 557 29,000  Level Memphis Center
Sun 08:07:25 AM 34.9142 -87.2189 112° Southeast 485 558 29,000  Level Memphis Center
Sun 08:08:26 AM 34.8581 -87.0661 114° Southeast 486 559 29,000  Level Memphis Center
Sun 08:09:27 AM 34.7925 -86.9175 118° Southeast 491 565 29,000  Level Memphis Center
Sun 08:10:28 AM 34.7261 -86.7717 119° Southeast 491 565 29,000 -639 Level Memphis Center
Sun 08:11:29 AM 34.6622 -86.6267 118° Southeast 491 565 27,700 -1,426 Descending Memphis Center
Sun 08:12:30 AM 34.5964 -86.4814 119° Southeast 490 564 26,100 -1,230 Descending Memphis Center
Sun 08:13:31 AM 34.5289 -86.3333 119° Southeast 495 570 25,200 -885 Descending Memphis Center
Sun 08:14:32 AM 34.4608 -86.1872 119° Southeast 496 571 24,300 -590 Descending Memphis Center
Sun 08:15:33 AM 34.3969 -86.0453 119° Southeast 489 563 24,000 -148 Descending Memphis Center
Sun 08:16:34 AM 34.3319 -85.9058 119° Southeast 480 552 24,000  Level Memphis Center
Sun 08:17:35 AM 34.2675 -85.7642 119° Southeast 480 552 24,000 -1,490 Level Memphis Center
Sun 08:18:59 AM 34.1669 -85.5503 120° Southeast 475 547 20,400 -2,583 Descending Atlanta Center
Sun 08:19:59 AM 34.1078 -85.4236 119° Southeast 459 528 17,800 -2,900 Descending Atlanta Center
Sun 08:20:59 AM 34.0467 -85.2947 120° Southeast 448 516 14,600 -2,450 Descending Atlanta Center
Sun 08:21:59 AM 33.9956 -85.1814 119° Southeast 443 510 12,900 -800 Descending Atlanta Center
Sun 08:22:59 AM 33.9383 -85.0603 120° Southeast 429 494 13,000 50 Climbing Atlanta Center
Sun 08:23:59 AM 33.8850 -84.9347 117° Southeast 424 488 13,000  Level Atlanta Center
Sun 08:24:31 AM 33.8333 -84.8667 132° Southeast 416 479 13,000 65 Level Atlanta TRACON
Sun 08:25:31 AM 33.7667 -84.7667 129° Southeast 354 407 13,100 -100 Climbing Atlanta TRACON
Sun 08:26:31 AM 33.7000 -84.7000 140° Southeast 336 387 12,800 -500 Descending Atlanta TRACON
Sun 08:27:31 AM 33.6167 -84.6500 153° Southeast 329 379 12,100 -350 Descending Atlanta TRACON
Sun 08:28:31 AM 33.5333 -84.6333 171° South 333 383 12,100  Level Atlanta TRACON
Sun 08:29:31 AM 33.5167 -84.5333 101° East 319 367 12,100 -737 Level Atlanta TRACON
Sun 08:30:25 AM 33.5500 -84.4500 64° Northeast 337 388 10,700 -1,300 Descending Atlanta TRACON
Sun 08:31:31 AM 33.5333 -84.3333 100° East 299 344 9,500 -1,190 Descending Atlanta TRACON
Sun 08:32:31 AM 33.5333 -84.2333 90° East 255 293 8,200 -1,700 Descending Atlanta TRACON
Sun 08:33:31 AM 33.5333 -84.1500 90° East 261 300 6,100 -1,684 Descending Atlanta TRACON
Sun 08:34:25 AM 33.5333 -84.0667 90° East 265 305 5,000 -850 Descending Atlanta TRACON
Sun 08:35:31 AM 33.5833 -84.0333 29° Northeast 237 273 4,400 -524 Descending Atlanta TRACON
Sun 08:36:31 AM 33.6000 -84.0833 292° West 192 221 3,900 -474 Descending Atlanta TRACON
Sun 08:37:25 AM 33.6167 -84.1333 292° West 190 219 3,500 -421 Descending Atlanta TRACON
Sun 08:38:25 AM 33.6167 -84.2000 270° West 164 189 3,100 -190 Descending Atlanta TRACON
Sun 08:39:31 AM 33.6167 -84.2500 270° West 161 185 3,100 -143 Level Atlanta TRACON
Sun 08:40:31 AM 33.6167 -84.3000 270° West 158 182 2,800 -450 Descending Atlanta TRACON
Sun 08:41:31 AM 33.6167 -84.3500 270° West 124 143 2,200 -667 Descending Atlanta TRACON
Sun 08:42:37 AM 33.6167 -84.4000 270° West 140 161 1,400 -727 Descending Atlanta TRACON

Login

Don't have an account? Register now (free) for customized features, flight alerts, and more!